createdAt,value
2022-12-25T00:02:16.597Z,0
2022-12-25T00:04:42.664Z,0
2022-12-25T00:07:07.793Z,0
2022-12-25T00:09:33.891Z,0
2022-12-25T00:12:00.081Z,0
2022-12-25T00:14:26.076Z,0
2022-12-25T00:16:52.156Z,0
2022-12-25T00:19:18.269Z,0
2022-12-25T00:21:44.366Z,0
2022-12-25T00:24:10.458Z,0
2022-12-25T00:26:36.553Z,0
2022-12-25T00:29:02.697Z,0
2022-12-25T00:31:28.760Z,0
2022-12-25T00:33:54.918Z,0
2022-12-25T00:36:20.941Z,0
2022-12-25T00:38:47.077Z,0
2022-12-25T00:41:13.126Z,0
2022-12-25T00:43:39.293Z,0
2022-12-25T00:46:04.337Z,0
2022-12-25T00:48:30.521Z,0
2022-12-25T00:50:56.600Z,0
2022-12-25T00:53:22.700Z,0
2022-12-25T00:55:48.793Z,0
2022-12-25T00:58:14.901Z,0
2022-12-25T01:00:40.956Z,0
2022-12-25T01:03:07.123Z,0
2022-12-25T01:05:33.111Z,0
2022-12-25T01:07:59.274Z,0
2022-12-25T01:10:25.309Z,0
2022-12-25T01:12:51.383Z,0
2022-12-25T01:15:17.514Z,0
2022-12-25T01:17:42.605Z,0
2022-12-25T01:20:08.691Z,0
2022-12-25T01:22:34.788Z,0
2022-12-25T01:25:00.888Z,0
2022-12-25T01:27:26.998Z,0
2022-12-25T01:29:53.116Z,0
2022-12-25T01:32:19.182Z,0
2022-12-25T01:34:45.268Z,0
2022-12-25T01:37:11.388Z,0
2022-12-25T01:39:37.517Z,0
2022-12-25T01:42:03.564Z,0
2022-12-25T01:44:29.655Z,0
2022-12-25T01:46:55.741Z,0
2022-12-25T01:49:20.929Z,0
2022-12-25T01:51:46.965Z,0
2022-12-25T01:54:13.068Z,0
2022-12-25T01:56:39.186Z,0
2022-12-25T01:59:05.239Z,0
2022-12-25T02:01:31.364Z,0
2022-12-25T02:03:57.455Z,0
2022-12-25T02:06:23.528Z,0
2022-12-25T02:08:49.622Z,0
2022-12-25T02:11:15.713Z,0
2022-12-25T02:13:41.818Z,0
2022-12-25T02:16:07.903Z,0
2022-12-25T02:18:34.017Z,0
2022-12-25T02:20:59.179Z,0
2022-12-25T02:23:25.222Z,0
2022-12-25T02:25:51.323Z,0
2022-12-25T02:28:17.433Z,0
2022-12-25T02:30:43.505Z,0
2022-12-25T02:33:09.605Z,0
2022-12-25T02:35:35.711Z,0
2022-12-25T02:38:01.817Z,0
2022-12-25T02:40:27.904Z,0
2022-12-25T02:42:53.996Z,0
2022-12-25T02:45:20.090Z,0
2022-12-25T02:47:46.186Z,0
2022-12-25T02:50:12.280Z,0
2022-12-25T02:52:37.403Z,0
2022-12-25T02:55:03.499Z,0
2022-12-25T02:57:29.586Z,0
2022-12-25T02:59:55.688Z,0
2022-12-25T03:02:21.772Z,0
2022-12-25T03:04:47.876Z,0
2022-12-25T03:07:13.967Z,0
2022-12-25T03:09:40.107Z,0
2022-12-25T03:12:06.153Z,0
2022-12-25T03:14:32.256Z,0
2022-12-25T03:16:58.361Z,0
2022-12-25T03:19:24.511Z,0
2022-12-25T03:21:50.555Z,0
2022-12-25T03:24:15.651Z,0
2022-12-25T03:26:41.746Z,0
2022-12-25T03:29:07.863Z,0
2022-12-25T03:31:32.972Z,0
2022-12-25T03:33:59.074Z,0
2022-12-25T03:36:25.169Z,0
2022-12-25T03:38:51.266Z,0
2022-12-25T03:41:17.352Z,0
2022-12-25T03:43:43.452Z,0
2022-12-25T03:46:09.557Z,0
2022-12-25T03:48:35.659Z,0
2022-12-25T03:51:01.738Z,0
2022-12-25T03:53:27.844Z,0
2022-12-25T03:55:53.984Z,0
2022-12-25T03:58:20.018Z,0
2022-12-25T04:00:46.131Z,0
2022-12-25T04:03:11.235Z,0
2022-12-25T04:05:37.345Z,0
2022-12-25T04:08:03.414Z,0
2022-12-25T04:10:29.539Z,0
2022-12-25T04:12:55.962Z,0
2022-12-25T04:15:21.722Z,0
2022-12-25T04:17:47.824Z,0
2022-12-25T04:20:13.924Z,0
2022-12-25T04:22:40.001Z,0
2022-12-25T04:25:06.106Z,0
2022-12-25T04:27:32.198Z,0
2022-12-25T04:29:58.314Z,0
2022-12-25T04:32:24.396Z,0
2022-12-25T04:34:49.505Z,0
2022-12-25T04:37:15.626Z,0
2022-12-25T04:39:41.686Z,0
2022-12-25T04:42:07.793Z,0
2022-12-25T04:44:33.886Z,0
2022-12-25T04:46:59.980Z,0
2022-12-25T04:49:26.095Z,0
2022-12-25T04:51:52.171Z,0
2022-12-25T04:54:18.268Z,0
2022-12-25T04:56:44.365Z,0
2022-12-25T04:59:10.452Z,0
2022-12-25T05:01:36.882Z,0
2022-12-25T05:04:02.648Z,0
2022-12-25T05:06:27.759Z,0
2022-12-25T05:08:53.870Z,0
2022-12-25T05:11:19.961Z,0
2022-12-25T05:13:46.060Z,0
2022-12-25T05:16:12.151Z,0
2022-12-25T05:18:38.245Z,0
2022-12-25T05:21:04.365Z,0
2022-12-25T05:23:30.437Z,0
2022-12-25T05:25:56.559Z,0
2022-12-25T05:28:22.644Z,0
2022-12-25T05:30:48.722Z,0
2022-12-25T05:33:14.822Z,0
2022-12-25T05:35:40.937Z,0
2022-12-25T05:38:06.039Z,0
2022-12-25T05:40:32.122Z,0
2022-12-25T05:42:58.263Z,0
2022-12-25T05:45:24.379Z,0
2022-12-25T05:47:50.412Z,0
2022-12-25T05:50:16.510Z,0
2022-12-25T05:52:42.617Z,0
2022-12-25T05:55:08.697Z,0
2022-12-25T05:57:35.295Z,0
2022-12-25T06:00:00.897Z,0
2022-12-25T06:02:26.981Z,0
2022-12-25T06:04:53.093Z,0
2022-12-25T06:07:19.199Z,0
2022-12-25T06:09:44.303Z,0
2022-12-25T06:12:10.482Z,0
2022-12-25T06:14:36.487Z,0
2022-12-25T06:17:02.781Z,0
2022-12-25T06:19:28.683Z,0
2022-12-25T06:21:54.771Z,0
2022-12-25T06:24:20.863Z,0
2022-12-25T06:26:46.962Z,0
2022-12-25T06:29:13.065Z,0
2022-12-25T06:31:39.152Z,0
2022-12-25T06:34:05.248Z,0
2022-12-25T06:36:31.414Z,0
2022-12-25T06:38:57.499Z,0
2022-12-25T06:41:22.556Z,0
2022-12-25T06:43:48.669Z,0
2022-12-25T06:46:14.752Z,0
2022-12-25T06:48:40.840Z,4
2022-12-25T06:51:06.932Z,4
2022-12-25T06:53:33.035Z,4
2022-12-25T06:55:59.125Z,12
2022-12-25T06:58:25.228Z,16
2022-12-25T07:00:51.321Z,20
2022-12-25T07:03:17.406Z,32
2022-12-25T07:05:43.502Z,40
2022-12-25T07:08:09.715Z,48
2022-12-25T07:10:35.746Z,56
2022-12-25T07:13:00.811Z,68
2022-12-25T07:15:26.907Z,72
2022-12-25T07:17:53.008Z,80
2022-12-25T07:20:19.113Z,100
2022-12-25T07:22:45.215Z,132
2022-12-25T07:25:11.302Z,156
2022-12-25T07:27:37.386Z,180
2022-12-25T07:30:03.571Z,208
2022-12-25T07:32:29.640Z,224
2022-12-25T07:34:55.747Z,224
2022-12-25T07:37:21.772Z,232
2022-12-25T07:39:47.922Z,261
2022-12-25T07:42:14.015Z,281
2022-12-25T07:44:39.086Z,325
2022-12-25T07:47:05.182Z,353
2022-12-25T07:49:31.296Z,413
2022-12-25T07:51:57.371Z,473
2022-12-25T07:54:23.542Z,429
2022-12-25T07:56:49.664Z,469
2022-12-25T07:59:15.697Z,501
2022-12-25T08:01:41.762Z,493
2022-12-25T08:04:07.840Z,578
2022-12-25T08:06:33.935Z,558
2022-12-25T08:09:00.098Z,518
2022-12-25T08:11:26.156Z,582
2022-12-25T08:13:52.247Z,686
2022-12-25T08:16:17.419Z,738
2022-12-25T08:18:43.433Z,791
2022-12-25T08:21:09.526Z,783
2022-12-25T08:23:35.798Z,835
2022-12-25T08:26:01.748Z,895
2022-12-25T08:28:27.899Z,1084
2022-12-25T08:30:54.009Z,1405
2022-12-25T08:33:20.003Z,1341
2022-12-25T08:35:46.155Z,1285
2022-12-25T08:38:12.266Z,1220
2022-12-25T08:40:38.332Z,1152
2022-12-25T08:43:04.398Z,1268
2022-12-25T08:45:30.499Z,1485
2022-12-25T08:47:55.620Z,1606
2022-12-25T08:50:21.814Z,1690
2022-12-25T08:52:47.795Z,1795
2022-12-25T08:55:13.915Z,1666
2022-12-25T08:57:40.004Z,1465
2022-12-25T09:00:06.085Z,1357
2022-12-25T09:02:32.337Z,1216
2022-12-25T09:04:58.411Z,1413
2022-12-25T09:07:24.470Z,1642
2022-12-25T09:09:50.513Z,1638
2022-12-25T09:12:16.651Z,1622
2022-12-25T09:14:42.683Z,1473
2022-12-25T09:17:08.838Z,1240
2022-12-25T09:19:33.871Z,1268
2022-12-25T09:22:00.063Z,1293
2022-12-25T09:24:26.149Z,1293
2022-12-25T09:26:52.305Z,1248
2022-12-25T09:29:18.386Z,1268
2022-12-25T09:31:44.414Z,1276
2022-12-25T09:34:10.554Z,1289
2022-12-25T09:36:36.665Z,1293
2022-12-25T09:39:02.714Z,1305
2022-12-25T09:41:28.738Z,1337
2022-12-25T09:43:54.859Z,1353
2022-12-25T09:46:20.972Z,1321
2022-12-25T09:48:47.064Z,1349
2022-12-25T09:51:12.193Z,1409
2022-12-25T09:53:38.221Z,1461
2022-12-25T09:56:04.309Z,1421
2022-12-25T09:58:30.453Z,1417
2022-12-25T10:00:56.497Z,1445
2022-12-25T10:03:22.599Z,1429
2022-12-25T10:05:48.735Z,1437
2022-12-25T10:08:14.827Z,1493
2022-12-25T10:10:40.896Z,1550
2022-12-25T10:13:07.034Z,1638
2022-12-25T10:15:33.129Z,1778
2022-12-25T10:17:59.173Z,1690
2022-12-25T10:22:51.484Z,1823
2022-12-25T10:25:16.474Z,1943
2022-12-25T10:27:42.714Z,1943
2022-12-25T10:30:08.675Z,1971
2022-12-25T10:32:34.841Z,2096
2022-12-25T10:35:00.894Z,2381
2022-12-25T10:37:27.027Z,2630
2022-12-25T10:39:53.133Z,2690
2022-12-25T10:42:19.144Z,2887
2022-12-25T10:44:45.241Z,3232
2022-12-25T10:47:11.358Z,3397
2022-12-25T10:49:37.456Z,3373
2022-12-25T10:52:03.528Z,3333
2022-12-25T10:54:29.640Z,3284
2022-12-25T10:56:54.722Z,3256
2022-12-25T10:59:20.830Z,3015
2022-12-25T11:01:46.937Z,2879
2022-12-25T11:04:13.012Z,2718
2022-12-25T11:06:39.166Z,2521
2022-12-25T11:09:05.207Z,2357
2022-12-25T11:11:31.406Z,2252
2022-12-25T11:13:57.405Z,2216
2022-12-25T11:16:23.571Z,2365
2022-12-25T11:18:49.669Z,2497
2022-12-25T11:21:15.691Z,2626
2022-12-25T11:23:41.810Z,2650
2022-12-25T11:26:07.898Z,2473
2022-12-25T11:28:33.061Z,2566
2022-12-25T11:30:59.126Z,2903
2022-12-25T11:33:25.313Z,3172
2022-12-25T11:35:51.280Z,3264
2022-12-25T11:38:17.371Z,3646
2022-12-25T11:40:42.489Z,3433
2022-12-25T11:43:08.667Z,3236
2022-12-25T11:45:34.724Z,3176
2022-12-25T11:48:00.934Z,3365
2022-12-25T11:50:26.982Z,3871
2022-12-25T11:52:53.159Z,4312
2022-12-25T11:55:19.105Z,4248
2022-12-25T11:57:45.255Z,4208
2022-12-25T12:00:11.370Z,4136
2022-12-25T12:02:37.394Z,3899
2022-12-25T12:05:03.506Z,3634
2022-12-25T12:07:29.543Z,3051
2022-12-25T12:09:55.689Z,2839
2022-12-25T12:12:20.791Z,2847
2022-12-25T12:14:46.861Z,2678
2022-12-25T12:17:12.947Z,2421
2022-12-25T12:19:39.084Z,2541
2022-12-25T12:22:05.172Z,2835
2022-12-25T12:24:31.236Z,3385
2022-12-25T12:26:57.321Z,3196
2022-12-25T12:29:23.469Z,3023
2022-12-25T12:31:49.576Z,2774
2022-12-25T12:34:15.678Z,2537
2022-12-25T12:36:41.700Z,2525
2022-12-25T12:39:07.845Z,2457
2022-12-25T12:41:33.886Z,2148
2022-12-25T12:43:59.026Z,1766
2022-12-25T12:46:25.204Z,1646
2022-12-25T12:48:51.280Z,1706
2022-12-25T12:51:17.347Z,1903
2022-12-25T12:53:43.396Z,2602
2022-12-25T12:56:09.513Z,3288
2022-12-25T12:58:35.642Z,3088
2022-12-25T13:01:01.729Z,3072
2022-12-25T13:03:27.847Z,2750
2022-12-25T13:05:53.867Z,1803
2022-12-25T13:08:19.967Z,1658
2022-12-25T13:10:46.057Z,1618
2022-12-25T13:13:12.166Z,1574
2022-12-25T13:15:37.285Z,1566
2022-12-25T13:18:03.354Z,1509
2022-12-25T13:20:29.456Z,1546
2022-12-25T13:22:55.665Z,1525
2022-12-25T13:25:21.631Z,1521
2022-12-25T13:27:47.779Z,1517
2022-12-25T13:30:13.833Z,1501
2022-12-25T13:32:40.077Z,1489
2022-12-25T13:35:06.049Z,1481
2022-12-25T13:37:32.115Z,1485
2022-12-25T13:39:58.243Z,1465
2022-12-25T13:42:24.352Z,1473
2022-12-25T13:44:50.421Z,1489
2022-12-25T13:47:15.529Z,1493
2022-12-25T13:49:41.607Z,1586
2022-12-25T13:52:07.720Z,1638
2022-12-25T13:54:33.793Z,1678
2022-12-25T13:56:59.901Z,1694
2022-12-25T13:59:26.059Z,1538
2022-12-25T14:01:52.108Z,1445
2022-12-25T14:06:44.312Z,1365
2022-12-25T14:09:10.380Z,1698
2022-12-25T14:11:36.538Z,2128
2022-12-25T14:14:02.576Z,2064
2022-12-25T14:16:28.690Z,1971
2022-12-25T14:18:54.807Z,2156
2022-12-25T14:21:20.948Z,2288
2022-12-25T14:23:46.976Z,1959
2022-12-25T14:26:13.047Z,1437
2022-12-25T14:28:38.209Z,1353
2022-12-25T14:31:04.256Z,1377
2022-12-25T14:33:30.390Z,1469
2022-12-25T14:35:56.523Z,1349
2022-12-25T14:38:22.568Z,891
2022-12-25T14:40:48.715Z,738
2022-12-25T14:43:14.752Z,690
2022-12-25T14:45:40.912Z,670
2022-12-25T14:48:06.923Z,650
2022-12-25T14:50:33.102Z,614
2022-12-25T14:52:59.132Z,626
2022-12-25T14:55:25.286Z,674
2022-12-25T14:57:51.466Z,626
2022-12-25T15:00:16.512Z,622
2022-12-25T15:02:42.615Z,578
2022-12-25T15:05:08.615Z,518
2022-12-25T15:07:34.710Z,437
2022-12-25T15:10:00.886Z,365
2022-12-25T15:12:26.927Z,329
2022-12-25T15:14:53.079Z,321
2022-12-25T15:17:19.172Z,305
2022-12-25T15:19:45.249Z,281
2022-12-25T15:22:11.355Z,232
2022-12-25T15:24:37.453Z,188
2022-12-25T15:27:03.539Z,156
2022-12-25T15:29:29.715Z,128
2022-12-25T15:31:55.736Z,104
2022-12-25T15:34:21.896Z,80
2022-12-25T15:36:47.885Z,60
2022-12-25T15:39:13.039Z,48
2022-12-25T15:41:39.105Z,32
2022-12-25T15:44:05.180Z,20
2022-12-25T15:46:31.390Z,16
2022-12-25T15:48:57.454Z,12
2022-12-25T15:51:23.516Z,8
2022-12-25T15:53:49.594Z,4
2022-12-25T15:56:15.652Z,0
2022-12-25T15:58:41.784Z,4
2022-12-25T16:01:07.831Z,0
2022-12-25T16:03:33.927Z,0
2022-12-25T16:06:00.111Z,0
2022-12-25T16:08:26.153Z,0
2022-12-25T16:10:51.364Z,0
2022-12-25T16:13:17.316Z,0
2022-12-25T16:15:43.498Z,0
2022-12-25T16:18:09.519Z,0
2022-12-25T16:20:35.638Z,0
2022-12-25T16:23:01.796Z,0
2022-12-25T16:25:27.894Z,0
2022-12-25T16:27:53.894Z,0
2022-12-25T16:30:19.982Z,0
2022-12-25T16:32:46.089Z,0
2022-12-25T16:35:12.191Z,0
2022-12-25T16:37:38.280Z,0
2022-12-25T16:40:04.369Z,0
2022-12-25T16:42:29.493Z,0
2022-12-25T16:44:55.582Z,0
2022-12-25T16:47:21.669Z,0
2022-12-25T16:49:47.783Z,0
2022-12-25T16:52:13.867Z,0
2022-12-25T16:54:39.960Z,0
2022-12-25T16:57:06.097Z,0
2022-12-25T16:59:32.157Z,0
2022-12-25T17:01:58.300Z,0
2022-12-25T17:04:24.346Z,0
2022-12-25T17:06:50.451Z,0
2022-12-25T17:09:16.539Z,0
2022-12-25T17:11:42.630Z,0
2022-12-25T17:14:07.765Z,0
2022-12-25T17:16:33.859Z,0
2022-12-25T17:18:59.928Z,0
2022-12-25T17:21:26.048Z,0
2022-12-25T17:23:52.125Z,0
2022-12-25T17:26:18.220Z,0
2022-12-25T17:28:44.366Z,0
2022-12-25T17:31:10.442Z,0
2022-12-25T17:33:36.516Z,0
2022-12-25T17:36:02.596Z,0
2022-12-25T17:38:28.698Z,0
2022-12-25T17:40:54.782Z,0
2022-12-25T17:43:20.915Z,0
2022-12-25T17:45:46.003Z,0
2022-12-25T17:48:12.097Z,0
2022-12-25T17:50:38.205Z,0
2022-12-25T17:53:04.320Z,0
2022-12-25T17:55:30.367Z,0
2022-12-25T17:57:56.473Z,0
2022-12-25T18:00:22.599Z,0
2022-12-25T18:02:48.673Z,0
2022-12-25T18:05:14.777Z,0
2022-12-25T18:07:40.875Z,0
2022-12-25T18:10:06.971Z,0
2022-12-25T18:12:33.052Z,0
2022-12-25T18:14:59.135Z,0
2022-12-25T18:17:24.288Z,0
2022-12-25T18:19:50.392Z,0
2022-12-25T18:22:16.532Z,0
2022-12-25T18:24:42.567Z,0
2022-12-25T18:27:08.661Z,0
2022-12-25T18:29:34.797Z,0
2022-12-25T18:32:00.864Z,0
2022-12-25T18:34:26.948Z,0
2022-12-25T18:36:53.086Z,0
2022-12-25T18:39:19.170Z,0
2022-12-25T18:41:45.223Z,0
2022-12-25T18:44:11.327Z,0
2022-12-25T18:46:37.416Z,0
2022-12-25T18:49:02.536Z,0
2022-12-25T18:51:28.655Z,0
2022-12-25T18:53:54.721Z,0
2022-12-25T18:56:20.858Z,0
2022-12-25T18:58:46.907Z,0
2022-12-25T19:01:13.013Z,0
2022-12-25T19:03:39.120Z,0
2022-12-25T19:06:05.219Z,0
2022-12-25T19:08:31.341Z,0
2022-12-25T19:10:57.385Z,0
2022-12-25T19:13:23.482Z,0
2022-12-25T19:15:49.602Z,0
2022-12-25T19:18:15.663Z,0
2022-12-25T19:20:40.802Z,0
2022-12-25T19:23:06.915Z,0
2022-12-25T19:25:33.034Z,0
2022-12-25T19:27:59.073Z,0
2022-12-25T19:30:25.180Z,0
2022-12-25T19:32:51.268Z,0
2022-12-25T19:35:17.429Z,0
2022-12-25T19:37:43.504Z,0
2022-12-25T19:40:09.562Z,0
2022-12-25T19:42:35.654Z,0
2022-12-25T19:45:01.810Z,0
2022-12-25T19:47:27.834Z,0
2022-12-25T19:49:52.986Z,0
2022-12-25T19:52:19.084Z,0
2022-12-25T19:54:45.174Z,0
2022-12-25T19:57:11.288Z,0
2022-12-25T19:59:37.448Z,0
2022-12-25T20:02:03.443Z,0
2022-12-25T20:04:29.524Z,0
2022-12-25T20:06:55.659Z,0
2022-12-25T20:09:21.776Z,0
2022-12-25T20:11:47.894Z,0
2022-12-25T20:14:14.000Z,0
2022-12-25T20:16:40.017Z,0
2022-12-25T20:19:06.110Z,0
2022-12-25T20:21:31.228Z,0
2022-12-25T20:23:57.344Z,0
2022-12-25T20:26:23.458Z,0
2022-12-25T20:28:49.679Z,0
2022-12-25T20:31:15.598Z,0
2022-12-25T20:33:41.779Z,0
2022-12-25T20:36:07.837Z,0
2022-12-25T20:38:33.926Z,0
2022-12-25T20:40:59.977Z,0
2022-12-25T20:43:26.225Z,0
2022-12-25T20:45:52.278Z,0
2022-12-25T20:48:18.342Z,0
2022-12-25T20:50:44.400Z,0
2022-12-25T20:53:09.491Z,0
2022-12-25T20:55:35.632Z,0
2022-12-25T20:58:01.667Z,0
2022-12-25T21:00:27.773Z,0
2022-12-25T21:02:53.939Z,0
2022-12-25T21:05:19.975Z,0
2022-12-25T21:07:46.156Z,0
2022-12-25T21:10:12.159Z,0
2022-12-25T21:12:38.242Z,0
2022-12-25T21:15:04.327Z,0
2022-12-25T21:17:30.433Z,0
2022-12-25T21:19:56.526Z,0
2022-12-25T21:22:22.649Z,0
2022-12-25T21:24:47.749Z,0
2022-12-25T21:27:13.828Z,0
2022-12-25T21:29:39.916Z,0
2022-12-25T21:32:06.033Z,0
2022-12-25T21:34:32.149Z,0
2022-12-25T21:36:58.198Z,0
2022-12-25T21:39:24.304Z,0
2022-12-25T21:41:50.403Z,0
2022-12-25T21:44:16.481Z,0
2022-12-25T21:46:42.601Z,0
2022-12-25T21:49:08.698Z,0
2022-12-25T21:51:34.787Z,0
2022-12-25T21:54:00.864Z,0
2022-12-25T21:56:25.979Z,0
2022-12-25T21:58:52.093Z,0
2022-12-25T22:01:18.182Z,0
2022-12-25T22:03:44.308Z,0
2022-12-25T22:06:10.399Z,0
2022-12-25T22:08:36.460Z,0
2022-12-25T22:11:02.561Z,0
2022-12-25T22:13:28.656Z,0
2022-12-25T22:15:54.760Z,0
2022-12-25T22:18:20.861Z,0
2022-12-25T22:21:03.977Z,0
2022-12-25T22:23:13.080Z,0
2022-12-25T22:25:39.196Z,0
2022-12-25T22:28:04.252Z,0
2022-12-25T22:30:30.356Z,0
2022-12-25T22:32:56.717Z,0
2022-12-25T22:35:22.525Z,0
2022-12-25T22:37:48.639Z,0
2022-12-25T22:40:14.730Z,0
2022-12-25T22:42:40.881Z,0
2022-12-25T22:45:06.911Z,0
2022-12-25T22:47:33.074Z,0
2022-12-25T22:49:59.117Z,0
2022-12-25T22:52:25.204Z,0
2022-12-25T22:54:51.461Z,0
2022-12-25T22:57:17.398Z,0
2022-12-25T22:59:42.512Z,0
2022-12-25T23:02:08.601Z,0
2022-12-25T23:04:34.711Z,0
2022-12-25T23:07:00.787Z,0
2022-12-25T23:09:26.892Z,0
2022-12-25T23:11:53.006Z,0
2022-12-25T23:14:19.075Z,0
2022-12-25T23:16:45.163Z,0
2022-12-25T23:19:11.297Z,0
2022-12-25T23:21:37.491Z,0
2022-12-25T23:24:03.463Z,0
2022-12-25T23:26:29.559Z,0
2022-12-25T23:28:55.662Z,0
2022-12-25T23:31:20.757Z,0
2022-12-25T23:33:46.849Z,0
2022-12-25T23:36:12.955Z,0
2022-12-25T23:38:39.100Z,0
2022-12-25T23:41:05.139Z,0
2022-12-25T23:43:31.248Z,0
2022-12-25T23:45:57.461Z,0
2022-12-25T23:48:23.422Z,0
2022-12-25T23:50:49.528Z,0
2022-12-25T23:53:15.627Z,0
2022-12-25T23:55:41.712Z,0
2022-12-25T23:58:07.824Z,0
